Time;durP1;ratioP1;P1;durP2;ratioP2;P2;SDS_P1;SDS_P2;PMS_P1;PMS_P2;Temp;Humidity;BMP_temperature;BMP_pressure;BME280_temperature;BME280_humidity;BME280_pressure;Samples;Min_cycle;Max_cycle;Signal;HPM_P1;HPM_P2
2023/09/02 00:01:06;;;;;;;6.43;4.53;;;;;;;21.30;93.78;101189.03;5113838;28;20047;-72
2023/09/02 00:03:35;;;;;;;5.97;4.78;;;;;;;21.16;95.38;101189.34;5113800;28;20047;-72
2023/09/02 00:06:03;;;;;;;4.90;4.50;;;;;;;21.19;94.52;101195.03;5113213;28;20055;-73
2023/09/02 00:08:31;;;;;;;5.47;4.60;;;;;;;21.13;95.09;101193.59;5112040;28;20047;-72
2023/09/02 00:10:59;;;;;;;8.68;4.90;;;;;;;21.12;95.90;101180.81;5112491;28;20040;-72
2023/09/02 00:13:27;;;;;;;6.22;4.93;;;;;;;21.05;96.37;101186.09;5095873;28;20039;-72
2023/09/02 00:15:55;;;;;;;5.00;4.10;;;;;;;20.93;96.90;101179.31;5113518;28;20375;-72
2023/09/02 00:18:23;;;;;;;4.97;4.55;;;;;;;20.79;97.51;101175.94;5113887;28;20055;-72
2023/09/02 00:20:52;;;;;;;5.43;4.75;;;;;;;20.83;98.73;101178.84;5113614;28;20050;-72
2023/09/02 00:23:20;;;;;;;7.28;5.15;;;;;;;20.78;99.56;101183.44;5113159;28;20052;-73
2023/09/02 00:25:48;;;;;;;6.95;4.95;;;;;;;20.95;98.02;101178.97;5113125;28;20894;-72
2023/09/02 00:28:16;;;;;;;8.43;4.75;;;;;;;20.94;97.41;101180.13;5113570;28;20050;-72
2023/09/02 00:30:44;;;;;;;6.55;4.68;;;;;;;20.77;98.51;101173.47;5112926;28;20485;-73
2023/09/02 00:33:12;;;;;;;6.60;5.35;;;;;;;20.66;99.65;101169.44;5095325;28;20047;-72
2023/09/02 00:35:40;;;;;;;5.50;4.90;;;;;;;20.62;99.28;101174.88;5113334;28;20040;-72
2023/09/02 00:38:08;;;;;;;6.88;4.70;;;;;;;20.56;99.65;101176.19;5095308;28;20048;-72
2023/09/02 00:40:42;;;;;;;5.65;4.68;;;;;;;20.66;97.81;101173.06;5113136;28;20055;-73
2023/09/02 00:43:10;;;;;;;6.55;4.55;;;;;;;20.75;97.68;101173.00;5113321;28;20039;-72
2023/09/02 00:45:38;;;;;;;6.15;4.70;;;;;;;20.73;98.48;101168.94;5094523;28;20505;-72
2023/09/02 00:48:06;;;;;;;5.53;4.28;;;;;;;20.62;97.77;101160.16;5111973;28;20052;-73
2023/09/02 00:50:35;;;;;;;4.80;4.10;;;;;;;20.78;97.46;101161.19;5111204;28;20505;-73
2023/09/02 00:53:03;;;;;;;4.90;4.40;;;;;;;20.71;97.54;101162.91;5101896;28;20048;-72
2023/09/02 00:55:31;;;;;;;9.27;5.00;;;;;;;20.61;99.03;101159.34;5093485;28;20048;-72
2023/09/02 00:58:00;;;;;;;4.70;4.30;;;;;;;20.53;100.00;101161.00;5112120;28;20047;-72
2023/09/02 01:00:28;;;;;;;6.45;4.38;;;;;;;20.46;99.58;101159.88;5094640;28;20039;-72
2023/09/02 01:02:58;;;;;;;7.65;4.60;;;;;;;20.41;100.00;101152.56;5112965;28;20094;-72
2023/09/02 01:05:26;;;;;;;5.20;4.45;;;;;;;20.53;99.44;101160.22;5112649;28;20055;-73
2023/09/02 01:07:56;;;;;;;4.95;4.43;;;;;;;20.61;99.03;101156.56;5094300;28;20397;-72
2023/09/02 01:10:25;;;;;;;5.60;4.38;;;;;;;20.54;99.59;101151.50;5112799;28;20032;-72
2023/09/02 01:12:53;;;;;;;5.10;4.60;;;;;;;20.51;98.75;101159.69;5094679;28;20066;-73
2023/09/02 01:15:21;;;;;;;7.45;4.65;;;;;;;20.48;100.00;101146.50;5112289;28;20048;-72
2023/09/02 01:17:49;;;;;;;6.50;4.55;;;;;;;20.37;100.00;101151.59;5093796;28;20043;-72
2023/09/02 01:20:19;;;;;;;5.43;4.68;;;;;;;20.41;100.00;101147.00;5112341;28;20036;-72
2023/09/02 01:23:09;;;;;;;7.28;4.70;;;;;;;20.37;99.90;101157.16;5094877;28;20047;-72
2023/09/02 01:25:55;;;;;;;6.32;4.97;;;;;;;20.34;100.00;101158.63;5061302;28;20054;-72
2023/09/02 01:28:30;;;;;;;6.25;4.40;;;;;;;20.33;100.00;101145.09;5112648;28;20052;-72
2023/09/02 01:31:04;;;;;;;6.07;4.47;;;;;;;20.36;98.78;101149.97;5111851;28;20051;-72
2023/09/02 01:33:32;;;;;;;6.97;4.72;;;;;;;20.32;99.37;101135.91;5112495;28;20497;-72
2023/09/02 01:36:01;;;;;;;7.03;4.50;;;;;;;20.19;100.00;101148.88;5111878;28;20074;-72
2023/09/02 01:38:31;;;;;;;6.68;4.80;;;;;;;20.29;99.78;101142.16;5112240;28;20067;-72
2023/09/02 01:41:04;;;;;;;5.10;3.83;;;;;;;20.25;100.00;101138.41;5111131;28;20055;-72
2023/09/02 01:43:34;;;;;;;4.60;4.00;;;;;;;20.11;100.00;101144.16;5090596;28;20055;-72
2023/09/02 01:46:03;;;;;;;4.72;4.32;;;;;;;20.10;100.00;101148.91;5090945;28;20058;-72
2023/09/02 01:48:31;;;;;;;8.45;4.90;;;;;;;20.06;100.00;101139.63;5091793;28;20052;-72
2023/09/02 01:50:59;;;;;;;5.10;4.35;;;;;;;20.06;100.00;101147.13;5092236;28;20044;-72
2023/09/02 01:53:29;;;;;;;7.25;4.60;;;;;;;19.96;100.00;101142.75;5090416;28;20048;-72
2023/09/02 01:55:57;;;;;;;5.57;4.25;;;;;;;19.92;100.00;101148.09;5092089;28;20044;-72
2023/09/02 01:58:26;;;;;;;6.55;4.47;;;;;;;19.81;100.00;101146.81;5090943;28;20060;-72
2023/09/02 02:00:54;;;;;;;5.43;4.47;;;;;;;19.87;100.00;101140.78;5090570;28;20044;-72
2023/09/02 02:03:28;;;;;;;6.22;4.65;;;;;;;19.77;100.00;101140.28;5090742;28;20055;-73
2023/09/02 02:05:59;;;;;;;6.68;4.47;;;;;;;19.84;100.00;101135.88;5086719;28;20040;-72
2023/09/02 02:08:37;;;;;;;8.30;4.43;;;;;;;19.90;100.00;101135.69;5091248;28;20044;-72
2023/09/02 02:11:06;;;;;;;4.63;4.18;;;;;;;19.84;100.00;101135.88;5090853;28;20501;-72
2023/09/02 02:13:35;;;;;;;7.07;4.50;;;;;;;19.86;100.00;101130.00;5091316;28;20051;-72
2023/09/02 02:16:03;;;;;;;5.40;4.22;;;;;;;19.93;100.00;101130.28;5091937;28;20051;-72
2023/09/02 02:18:31;;;;;;;10.40;5.10;;;;;;;19.92;100.00;101131.44;5090621;28;20043;-72
2023/09/02 02:21:02;;;;;;;5.40;4.90;;;;;;;19.87;100.00;101129.66;5083544;28;20443;-72
2023/09/02 02:23:31;;;;;;;5.60;5.00;;;;;;;19.81;100.00;101142.09;5069346;28;20044;-72
2023/09/02 02:26:01;;;;;;;6.00;5.15;;;;;;;19.76;100.00;101135.88;5084227;28;20056;-72
2023/09/02 02:28:29;;;;;;;6.47;4.65;;;;;;;19.73;100.00;101145.69;5082336;28;20048;-72
2023/09/02 02:30:58;;;;;;;6.22;5.25;;;;;;;19.74;100.00;101138.97;5081795;28;20074;-73
2023/09/02 02:33:27;;;;;;;6.43;5.82;;;;;;;19.70;100.00;101136.06;5082724;28;20067;-72
2023/09/02 02:35:55;;;;;;;6.07;4.90;;;;;;;19.66;100.00;101134.28;5094993;28;20371;-73
2023/09/02 02:38:23;;;;;;;5.93;5.00;;;;;;;19.63;100.00;101137.69;5095740;28;20036;-72
2023/09/02 02:40:51;;;;;;;6.07;5.40;;;;;;;19.67;100.00;101135.91;5094581;28;20055;-72
2023/09/02 02:43:26;;;;;;;8.57;5.53;;;;;;;19.77;100.00;101138.34;5096278;28;20055;-72
2023/09/02 02:45:54;;;;;;;9.10;6.00;;;;;;;19.71;100.00;101128.56;5096991;28;20035;-72
2023/09/02 02:48:28;;;;;;;7.30;6.10;;;;;;;19.63;100.00;101135.75;5114653;28;20055;-72
2023/09/02 02:50:57;;;;;;;8.38;5.53;;;;;;;19.66;100.00;101125.94;5114787;28;20054;-72
2023/09/02 02:53:25;;;;;;;8.65;5.28;;;;;;;19.60;100.00;101131.66;5097708;28;20071;-72
2023/09/02 02:55:57;;;;;;;6.72;4.85;;;;;;;19.62;100.00;101136.88;5096750;28;20055;-72
2023/09/02 02:58:25;;;;;;;7.78;4.95;;;;;;;19.66;100.00;101135.09;5115138;28;20048;-72
2023/09/02 03:01:08;;;;;;;9.00;5.53;;;;;;;19.71;100.00;101131.31;5097077;28;20051;-72
2023/09/02 03:03:36;;;;;;;7.13;5.38;;;;;;;19.75;100.00;101135.09;5095779;28;20052;-72
2023/09/02 03:06:04;;;;;;;6.75;5.82;;;;;;;19.67;100.00;101131.16;5096150;28;20371;-72
2023/09/02 03:08:33;;;;;;;8.52;5.60;;;;;;;19.63;100.00;101132.13;5114477;28;20039;-72
2023/09/02 03:11:04;;;;;;;7.90;5.55;;;;;;;19.64;100.00;101134.59;5114856;28;20493;-72
2023/09/02 03:13:34;;;;;;;6.38;5.43;;;;;;;19.61;100.00;101136.06;5114583;28;20044;-72
2023/09/02 03:16:09;;;;;;;5.35;4.82;;;;;;;19.52;100.00;101131.66;5095945;28;20398;-72
2023/09/02 03:18:37;;;;;;;6.47;5.43;;;;;;;19.43;100.00;101126.13;5096561;28;20039;-72
2023/09/02 03:21:07;;;;;;;8.82;6.05;;;;;;;19.41;100.00;101132.00;5114896;28;20044;-72
2023/09/02 03:23:36;;;;;;;8.65;5.63;;;;;;;19.37;100.00;101128.25;5079566;28;20052;-72
2023/09/02 03:26:15;;;;;;;6.43;5.80;;;;;;;19.35;100.00;101130.53;5096095;28;20071;-72
2023/09/02 03:28:45;;;;;;;8.45;6.50;;;;;;;19.41;100.00;101139.53;5096575;28;20050;-72
2023/09/02 03:31:13;;;;;;;8.27;6.82;;;;;;;19.30;100.00;101137.06;5095966;28;20043;-72
2023/09/02 03:33:43;;;;;;;8.55;5.90;;;;;;;19.37;100.00;101135.75;5096063;28;20044;-72
2023/09/02 03:36:22;;;;;;;8.15;6.22;;;;;;;19.41;100.00;101134.78;5113964;28;20058;-72
2023/09/02 03:38:50;;;;;;;10.75;6.32;;;;;;;19.42;100.00;101130.88;5114234;28;20501;-72
2023/09/02 03:41:19;;;;;;;9.38;6.25;;;;;;;19.41;100.00;101128.41;5114472;28;20043;-72
2023/09/02 03:43:47;;;;;;;8.50;6.35;;;;;;;19.45;100.00;101132.97;5113065;28;20076;-72
2023/09/02 03:46:16;;;;;;;6.80;6.13;;;;;;;19.39;100.00;101136.22;5096387;28;20056;-72
2023/09/02 03:48:48;;;;;;;7.38;5.95;;;;;;;19.32;100.00;101137.53;5095674;28;20044;-72
2023/09/02 03:51:18;;;;;;;9.43;5.88;;;;;;;19.39;100.00;101137.06;5096247;28;20047;-72
2023/09/02 03:53:54;;;;;;;10.70;6.13;;;;;;;19.27;100.00;101134.97;5094813;28;20044;-72
2023/09/02 03:56:22;;;;;;;7.43;6.18;;;;;;;19.32;100.00;101137.53;5094347;28;20044;-72
2023/09/02 03:58:50;;;;;;;8.30;6.22;;;;;;;19.38;100.00;101140.16;5113906;28;20047;-72
2023/09/02 04:01:18;;;;;;;6.13;5.53;;;;;;;19.37;100.00;101136.59;5095964;28;20051;-72
2023/09/02 04:03:46;;;;;;;7.50;5.88;;;;;;;19.38;100.00;101140.16;5095751;28;20047;-72
2023/09/02 04:06:16;;;;;;;6.93;5.93;;;;;;;19.49;100.00;101135.13;5095322;28;20048;-73
2023/09/02 04:08:44;;;;;;;9.50;6.25;;;;;;;19.52;100.00;101140.81;5095410;28;20054;-72
2023/09/02 04:11:12;;;;;;;9.13;6.28;;;;;;;19.53;100.00;101136.91;5095133;28;20497;-72
2023/09/02 04:13:41;;;;;;;9.98;5.78;;;;;;;19.50;100.00;101133.97;5112970;28;20050;-72
2023/09/02 04:16:12;;;;;;;8.40;6.00;;;;;;;19.43;100.00;101140.00;5095862;28;20051;-72
2023/09/02 04:18:41;;;;;;;7.47;6.65;;;;;;;19.32;100.00;101140.31;5113633;28;20035;-72
2023/09/02 04:21:09;;;;;;;12.60;6.72;;;;;;;19.33;100.00;101144.75;5095747;28;20059;-72
2023/09/02 04:23:43;;;;;;;9.52;6.13;;;;;;;19.36;100.00;101151.59;5113360;28;20686;-72
2023/09/02 04:26:14;;;;;;;7.55;6.70;;;;;;;19.38;100.00;101151.25;5090976;28;20510;-72
2023/09/02 04:28:43;;;;;;;9.35;6.70;;;;;;;19.43;100.00;101159.44;5077251;28;20466;-72
2023/09/02 04:31:15;;;;;;;8.98;6.35;;;;;;;19.36;100.00;101159.94;5082784;28;20055;-72
2023/09/02 04:33:43;;;;;;;10.45;6.63;;;;;;;19.34;100.00;101159.44;5113016;28;20055;-72
2023/09/02 04:36:13;;;;;;;9.35;6.53;;;;;;;19.23;100.00;101153.38;5095512;28;20490;-72
2023/09/02 04:38:43;;;;;;;11.93;6.90;;;;;;;19.25;100.00;101156.66;5095320;28;20050;-72
2023/09/02 04:41:11;;;;;;;8.50;7.57;;;;;;;19.28;100.00;101158.78;5094293;28;20048;-72
2023/09/02 04:43:41;;;;;;;9.10;6.57;;;;;;;19.39;100.00;101158.44;5094952;28;20486;-72
2023/09/02 04:46:10;;;;;;;11.20;6.55;;;;;;;19.34;100.00;101163.03;5095110;28;20044;-72
2023/09/02 04:48:42;;;;;;;8.35;6.35;;;;;;;19.34;100.00;101156.66;5093293;28;20044;-72
2023/09/02 04:51:13;;;;;;;8.63;6.93;;;;;;;19.30;100.00;101158.44;5094431;28;20044;-72
2023/09/02 04:53:41;;;;;;;8.70;6.75;;;;;;;19.40;100.00;101154.53;5094247;28;20066;-72
2023/09/02 04:56:09;;;;;;;9.18;6.57;;;;;;;19.33;100.00;101160.56;5077724;28;20401;-72
2023/09/02 04:58:39;;;;;;;10.85;6.65;;;;;;;19.37;100.00;101157.97;5095043;28;20473;-72
2023/09/02 05:01:12;;;;;;;7.47;6.68;;;;;;;19.37;100.00;101166.28;5094590;28;20051;-72
2023/09/02 05:03:44;;;;;;;11.18;7.15;;;;;;;19.52;100.00;101164.97;5113031;28;20044;-72
2023/09/02 05:06:12;;;;;;;7.22;6.53;;;;;;;19.59;100.00;101168.91;5094670;28;20043;-72
2023/09/02 05:08:43;;;;;;;9.68;6.60;;;;;;;19.68;100.00;101181.94;5094093;28;20047;-72
2023/09/02 05:11:13;;;;;;;8.30;6.50;;;;;;;19.56;100.00;101175.09;5092406;28;20043;-72
2023/09/02 05:13:41;;;;;;;8.25;6.10;;;;;;;19.55;100.00;101181.00;5077572;28;20050;-72
2023/09/02 05:16:09;;;;;;;9.13;6.43;;;;;;;19.66;100.00;101182.28;5094347;28;20035;-75
2023/09/02 05:18:38;;;;;;;9.45;6.30;;;;;;;19.78;100.00;101192.72;5077730;28;20054;-75
2023/09/02 05:21:06;;;;;;;8.05;6.50;;;;;;;19.87;100.00;101185.22;5076873;28;20063;-75
2023/09/02 05:23:34;;;;;;;6.68;5.97;;;;;;;19.99;100.00;101194.88;5073689;28;20362;-75
2023/09/02 05:26:03;;;;;;;8.65;6.18;;;;;;;20.02;100.00;101194.19;5077683;28;20051;-74
2023/09/02 05:28:31;;;;;;;11.18;6.38;;;;;;;20.11;99.77;101200.56;5061025;28;20055;-75
2023/09/02 05:30:59;;;;;;;8.45;6.70;;;;;;;20.17;98.92;101200.34;5076811;28;20043;-75
2023/09/02 05:33:27;;;;;;;8.20;6.65;;;;;;;20.31;98.89;101200.16;5060903;28;20058;-75
2023/09/02 05:35:55;;;;;;;8.65;6.43;;;;;;;20.38;98.16;101204.06;5057497;28;20489;-75
2023/09/02 05:38:23;;;;;;;8.45;5.60;;;;;;;20.37;97.26;101201.59;5060698;28;20051;-75
2023/09/02 05:40:52;;;;;;;10.90;6.43;;;;;;;20.53;96.19;101210.25;5059365;28;20040;-75
2023/09/02 05:43:20;;;;;;;8.98;5.90;;;;;;;20.51;97.15;101206.97;5076981;28;20416;-76
2023/09/02 05:45:48;;;;;;;7.47;5.55;;;;;;;20.60;95.39;101204.97;5076963;28;20048;-74
2023/09/02 05:48:17;;;;;;;7.05;5.72;;;;;;;20.62;95.45;101207.44;5072956;28;20059;-74
2023/09/02 05:50:45;;;;;;;7.28;5.47;;;;;;;20.72;96.53;101209.03;5056920;28;20048;-76
2023/09/02 05:53:13;;;;;;;8.13;6.07;;;;;;;20.86;95.07;101206.03;5056957;28;20056;-75
2023/09/02 05:55:41;;;;;;;5.95;5.35;;;;;;;21.02;94.37;101209.06;5056174;28;20052;-75
2023/09/02 05:58:09;;;;;;;8.02;5.43;;;;;;;21.12;93.56;101208.66;5077008;28;20490;-75
2023/09/02 06:00:37;;;;;;;6.32;5.45;;;;;;;21.34;93.24;101210.31;5056465;28;20055;-76
2023/09/02 06:03:06;;;;;;;6.72;5.20;;;;;;;21.44;91.63;101211.06;5040709;28;20059;-77
2023/09/02 06:05:34;;;;;;;6.35;5.35;;;;;;;21.44;91.56;101199.91;5095267;28;20385;-76
2023/09/02 06:08:03;;;;;;;8.32;5.63;;;;;;;21.57;91.99;101201.63;5116375;28;20055;-76
2023/09/02 06:10:31;;;;;;;7.90;5.28;;;;;;;21.69;91.13;101212.00;5115511;28;20054;-76
2023/09/02 06:13:03;;;;;;;5.32;4.70;;;;;;;21.80;91.12;101215.19;5116585;28;20066;-76
2023/09/02 06:15:31;;;;;;;7.18;5.22;;;;;;;21.90;91.00;101213.16;5098266;28;20066;-76
2023/09/02 06:18:00;;;;;;;5.90;4.68;;;;;;;22.01;89.81;101217.16;5116794;28;20083;-76
2023/09/02 06:20:28;;;;;;;5.80;5.20;;;;;;;22.16;88.70;101212.91;5097653;28;20393;-76
2023/09/02 06:22:57;;;;;;;7.35;5.30;;;;;;;22.23;88.49;101215.09;5116770;28;20058;-76
2023/09/02 06:25:26;;;;;;;7.43;5.10;;;;;;;22.38;87.66;101230.38;5116737;28;20079;-76
2023/09/02 06:27:54;;;;;;;6.25;4.85;;;;;;;22.52;86.73;101233.69;5115662;28;20047;-76
2023/09/02 06:30:29;;;;;;;8.15;5.00;;;;;;;22.52;86.99;101239.25;5113949;28;20195;-78
2023/09/02 06:32:58;;;;;;;6.55;5.25;;;;;;;22.64;86.40;101237.66;5114056;28;20058;-76
2023/09/02 06:35:30;;;;;;;6.85;5.00;;;;;;;22.84;85.36;101237.88;5078128;28;20040;-76
2023/09/02 06:37:58;;;;;;;4.43;4.03;;;;;;;22.98;83.77;101238.38;5095869;28;20067;-76
2023/09/02 06:40:29;;;;;;;5.97;3.90;;;;;;;23.20;82.91;101241.81;5085859;28;20047;-77
2023/09/02 06:42:58;;;;;;;6.35;4.78;;;;;;;23.35;82.24;101245.91;5116012;28;20054;-77
2023/09/02 06:45:26;;;;;;;5.82;4.72;;;;;;;23.47;81.64;101245.06;5094390;28;20052;-77
2023/09/02 06:47:55;;;;;;;5.60;4.28;;;;;;;23.44;81.38;101242.97;5094588;28;20052;-77
2023/09/02 06:50:27;;;;;;;5.38;3.88;;;;;;;23.54;81.32;101248.06;5094882;28;20118;-78
2023/09/02 06:52:56;;;;;;;4.60;4.20;;;;;;;23.69;80.23;101248.47;5095453;28;20040;-77
2023/09/02 06:55:24;;;;;;;5.57;5.00;;;;;;;23.67;79.42;101253.63;5096441;28;20387;-77
2023/09/02 06:57:53;;;;;;;6.28;4.72;;;;;;;23.67;79.48;101248.03;5096195;28;20044;-77
2023/09/02 07:00:21;;;;;;;5.95;4.50;;;;;;;23.82;79.51;101263.22;5094030;28;20371;-77
2023/09/02 07:02:50;;;;;;;6.85;4.43;;;;;;;23.92;78.35;101251.56;5094640;28;20044;-78
2023/09/02 07:05:19;;;;;;;4.97;4.03;;;;;;;24.01;77.99;101254.19;5094032;28;20390;-78
2023/09/02 07:07:48;;;;;;;5.18;3.92;;;;;;;24.09;79.37;101261.63;5091733;28;20048;-76
2023/09/02 07:10:30;;;;;;;4.88;3.88;;;;;;;24.24;76.44;101262.03;5090614;28;20040;-76
2023/09/02 07:31:18;;;;;;;7.22;4.30;;;;;;;24.83;73.10;101260.38;5403363;22;20414;-75
2023/09/02 07:38:19;;;;;;;8.38;4.82;;;;;;;25.00;72.53;101263.16;5043939;28;20044;-77
2023/09/02 07:40:47;;;;;;;5.55;4.38;;;;;;;25.07;70.97;101263.38;5037864;28;20075;-77
2023/09/02 07:43:16;;;;;;;4.45;3.63;;;;;;;25.09;70.69;101263.81;5038999;28;20056;-77
2023/09/02 07:45:47;;;;;;;6.15;4.43;;;;;;;25.01;73.17;101259.19;5039266;28;20044;-76
2023/09/02 07:48:17;;;;;;;4.53;3.70;;;;;;;24.82;71.96;101260.75;5023356;28;20049;-75
2023/09/02 07:50:49;;;;;;;8.27;4.20;;;;;;;24.57;74.68;101269.28;5021883;28;20040;-75
2023/09/02 07:53:21;;;;;;;4.90;4.32;;;;;;;24.59;74.56;101275.34;5072267;28;20059;-77
2023/09/02 07:55:50;;;;;;;8.27;4.80;;;;;;;24.75;73.18;101260.53;5023281;28;20048;-77
2023/09/02 07:58:18;;;;;;;6.32;4.22;;;;;;;24.95;71.41;101262.28;5073975;28;20372;-77
2023/09/02 08:00:46;;;;;;;6.20;3.58;;;;;;;24.98;70.31;101262.72;5073524;28;20075;-78
2023/09/02 08:03:15;;;;;;;4.95;3.58;;;;;;;25.23;68.55;101266.91;5074131;28;20401;-81
2023/09/02 08:05:44;;;;;;;6.72;4.03;;;;;;;25.16;69.55;101279.97;5073621;28;20052;-76
2023/09/02 08:08:13;;;;;;;5.07;3.67;;;;;;;25.33;70.10;101275.94;5055897;28;20052;-76
2023/09/02 08:10:41;;;;;;;7.50;3.88;;;;;;;25.52;67.96;101274.34;5073318;28;20083;-76
2023/09/02 08:13:10;;;;;;;5.75;4.00;;;;;;;25.55;68.73;101270.88;5073781;28;20060;-76
2023/09/02 08:15:38;;;;;;;6.13;4.18;;;;;;;25.40;69.07;101270.50;5073618;28;20386;-77
2023/09/02 08:18:07;;;;;;;5.65;4.22;;;;;;;25.37;68.93;101271.25;5055531;28;20049;-78
2023/09/02 08:20:35;;;;;;;4.20;3.42;;;;;;;25.38;68.58;101274.84;5073491;28;20394;-75
2023/09/02 08:23:06;;;;;;;8.52;4.20;;;;;;;25.35;70.13;101265.19;5054007;28;20040;-79
2023/09/02 08:25:34;;;;;;;6.55;4.90;;;;;;;25.42;70.00;101273.75;5073990;28;20512;-78
2023/09/02 08:28:03;;;;;;;8.10;4.35;;;;;;;25.59;68.81;101278.16;5072993;28;20044;-63
2023/09/02 08:30:31;;;;;;;4.78;4.25;;;;;;;25.71;68.66;101279.22;5073372;28;20048;-84
2023/09/02 08:32:59;;;;;;;6.32;4.35;;;;;;;25.80;67.94;101276.97;5072159;28;20064;-76
2023/09/02 08:35:28;;;;;;;6.85;4.40;;;;;;;25.89;70.52;101273.97;5066856;28;20048;-75
2023/09/02 08:37:56;;;;;;;5.93;4.50;;;;;;;25.94;68.65;101275.69;5068952;28;20497;-76
2023/09/02 08:40:24;;;;;;;7.50;3.83;;;;;;;26.03;67.14;101274.25;5071686;28;20379;-75
2023/09/02 08:42:54;;;;;;;4.53;3.63;;;;;;;26.07;67.30;101274.34;5064571;28;20458;-76
2023/09/02 08:45:33;;;;;;;5.82;4.47;;;;;;;26.20;66.26;101277.75;5047851;28;20071;-76
2023/09/02 08:48:02;;;;;;;6.35;4.28;;;;;;;26.23;67.11;101271.47;5021909;28;20051;-76
2023/09/02 08:50:31;;;;;;;4.97;3.92;;;;;;;26.40;65.03;101272.16;5036740;28;20068;-76
2023/09/02 08:53:00;;;;;;;6.78;3.80;;;;;;;26.39;64.91;101278.97;5019923;28;20067;-64
2023/09/02 08:55:31;;;;;;;9.27;4.88;;;;;;;26.39;65.54;101271.34;5065575;28;20052;-76
2023/09/02 08:58:00;;;;;;;5.22;4.72;;;;;;;26.27;63.39;101279.94;5035442;28;20053;-76
2023/09/02 09:00:31;;;;;;;5.28;3.45;;;;;;;26.35;64.83;101273.28;5064748;28;20406;-76
2023/09/02 09:03:02;;;;;;;5.75;4.20;;;;;;;26.40;64.22;101277.78;5071807;28;20044;-76
2023/09/02 09:05:31;;;;;;;7.47;3.53;;;;;;;26.58;62.92;101286.50;5062996;28;20051;-76
2023/09/02 09:08:01;;;;;;;7.50;4.03;;;;;;;26.67;62.47;101280.66;5067687;28;20059;-76
2023/09/02 09:10:34;;;;;;;3.85;3.53;;;;;;;26.82;61.42;101285.31;5063474;28;20041;-76
2023/09/02 09:13:09;;;;;;;6.25;4.03;;;;;;;26.89;60.45;101281.84;5055082;28;20053;-76
2023/09/02 09:15:38;;;;;;;4.85;3.58;;;;;;;26.96;61.19;101276.34;5069834;28;20048;-76
2023/09/02 09:18:09;;;;;;;4.80;3.65;;;;;;;26.99;61.62;101277.59;5070521;28;20055;-77
2023/09/02 09:20:39;;;;;;;4.90;4.28;;;;;;;27.21;60.74;101278.75;5060365;28;20052;-76
2023/09/02 09:23:10;;;;;;;3.55;2.92;;;;;;;27.26;60.76;101274.00;5072570;28;20068;-76
2023/09/02 09:25:39;;;;;;;4.05;3.67;;;;;;;27.34;60.86;101284.97;5072558;28;20068;-77
2023/09/02 09:28:11;;;;;;;5.47;3.75;;;;;;;27.24;60.43;101277.16;5066532;28;20107;-77
2023/09/02 09:30:40;;;;;;;5.45;3.05;;;;;;;27.43;61.37;101278.25;5071436;28;20040;-77
2023/09/02 09:33:08;;;;;;;5.80;4.25;;;;;;;27.49;59.75;101277.53;5063065;28;20068;-76
2023/09/02 09:35:37;;;;;;;7.22;4.20;;;;;;;27.61;58.18;101278.53;5069249;28;20406;-76
2023/09/02 09:38:05;;;;;;;6.95;3.38;;;;;;;27.61;58.89;101273.69;5071679;28;20494;-77
2023/09/02 09:40:35;;;;;;;4.78;2.95;;;;;;;27.56;58.29;101279.63;5071430;28;20375;-76
2023/09/02 09:43:17;;;;;;;6.55;3.67;;;;;;;27.67;57.67;101284.59;5069878;28;20057;-77
2023/09/02 09:45:51;;;;;;;5.72;3.90;;;;;;;27.62;57.67;101266.09;5065690;28;20048;-77
2023/09/02 09:48:20;;;;;;;10.55;3.80;;;;;;;27.67;59.08;101273.38;5071631;28;20402;-77
2023/09/02 09:50:48;;;;;;;4.40;4.00;;;;;;;27.93;58.61;101277.28;5071451;28;20051;-77
2023/09/02 09:53:17;;;;;;;4.10;3.47;;;;;;;28.16;56.99;101279.97;5071229;28;20048;-77
2023/09/02 09:55:45;;;;;;;5.35;2.88;;;;;;;28.21;56.66;101281.63;5071216;28;20390;-76
2023/09/02 09:58:22;;;;;;;5.55;3.33;;;;;;;28.15;55.70;101279.16;5071571;28;20390;-76
2023/09/02 10:01:02;;;;;;;4.85;3.67;;;;;;;28.02;56.38;101280.63;5071649;28;20375;-76
2023/09/02 10:03:31;;;;;;;4.72;3.60;;;;;;;27.90;56.73;101278.84;5071714;28;20053;-77
2023/09/02 10:06:00;;;;;;;4.72;3.40;;;;;;;28.04;56.91;101279.03;5071114;28;20049;-76
2023/09/02 10:08:50;;;;;;;5.10;4.05;;;;;;;28.11;54.73;101277.50;5053247;28;20044;-76
2023/09/02 10:11:21;;;;;;;6.97;4.05;;;;;;;28.22;53.98;101270.03;5071503;28;20045;-76
2023/09/02 10:13:52;;;;;;;4.75;3.95;;;;;;;28.22;54.95;101266.34;5070792;28;20075;-76
2023/09/02 10:16:22;;;;;;;3.85;3.25;;;;;;;28.43;54.89;101275.06;5019106;28;20052;-76
2023/09/02 10:18:51;;;;;;;4.93;3.67;;;;;;;28.53;54.37;101264.25;5068384;28;20049;-76
2023/09/02 10:21:24;;;;;;;5.28;3.20;;;;;;;28.52;54.77;101269.09;5052412;28;20053;-76
2023/09/02 10:23:57;;;;;;;7.45;3.80;;;;;;;28.66;52.73;101261.97;5071707;28;20071;-76
2023/09/02 10:26:37;;;;;;;4.47;3.50;;;;;;;28.67;52.36;101263.59;5071210;28;20402;-77
2023/09/02 10:29:09;;;;;;;6.57;3.42;;;;;;;28.72;52.76;101265.25;5053569;28;20048;-76
2023/09/02 10:31:46;;;;;;;7.50;3.58;;;;;;;28.69;53.83;101253.56;5070489;28;20049;-77
2023/09/02 10:34:35;;;;;;;7.25;3.90;;;;;;;28.82;53.06;101267.31;5070584;28;20067;-76
2023/09/02 10:37:08;;;;;;;4.65;3.58;;;;;;;28.92;53.34;101263.81;5070950;28;20387;-76
2023/09/02 10:39:37;;;;;;;6.28;3.47;;;;;;;28.95;52.39;101274.31;5070861;28;20037;-76
2023/09/02 10:42:06;;;;;;;4.57;3.25;;;;;;;28.85;50.35;101272.19;5053757;28;20083;-76
2023/09/02 10:44:36;;;;;;;5.78;3.40;;;;;;;28.66;50.92;101274.06;5070699;28;20053;-76
2023/09/02 10:47:04;;;;;;;6.55;3.58;;;;;;;28.92;52.28;101275.09;5071345;28;20119;-76
2023/09/02 10:49:33;;;;;;;6.10;3.28;;;;;;;29.15;52.26;101254.31;5070845;28;20052;-76
2023/09/02 10:52:02;;;;;;;6.55;3.13;;;;;;;29.25;51.28;101264.03;5071789;28;20490;-77
2023/09/02 10:55:05;;;;;;;7.30;3.30;;;;;;;29.38;51.58;101261.69;5057769;28;20411;-76
2023/09/02 10:57:50;;;;;;;6.10;3.47;;;;;;;29.45;48.74;101260.91;5062854;28;20053;-77
2023/09/02 11:00:27;;;;;;;5.85;3.08;;;;;;;29.66;49.73;101259.44;5073146;28;20036;-77
2023/09/02 11:02:58;;;;;;;4.63;3.22;;;;;;;29.64;50.17;101246.56;5074597;28;20040;-77
2023/09/02 11:05:29;;;;;;;4.60;2.92;;;;;;;29.53;50.87;101253.34;5056755;28;20485;-76
2023/09/02 11:07:59;;;;;;;4.65;3.03;;;;;;;29.73;48.62;101254.66;5075975;28;20055;-77
2023/09/02 11:10:51;;;;;;;4.30;3.20;;;;;;;29.83;49.46;101253.06;5065132;28;20391;-77
2023/09/02 11:13:20;;;;;;;4.82;3.15;;;;;;;29.94;50.08;101241.81;5074071;28;20364;-77
2023/09/02 11:16:12;;;;;;;6.25;3.03;;;;;;;30.05;48.76;101247.47;5071784;28;20045;-77
2023/09/02 11:18:40;;;;;;;7.20;3.53;;;;;;;29.97;49.46;101249.47;5072831;28;20044;-76
2023/09/02 11:21:09;;;;;;;4.50;3.40;;;;;;;29.80;48.87;101244.59;5055561;28;20048;-76
2023/09/02 11:23:40;;;;;;;5.32;3.30;;;;;;;29.99;48.39;101249.88;5073273;28;20063;-76
2023/09/02 11:26:13;;;;;;;5.18;3.50;;;;;;;30.03;48.61;101250.72;5039407;28;20052;-76
2023/09/02 11:28:43;;;;;;;4.60;3.30;;;;;;;30.07;47.96;101250.72;5055966;28;20048;-76
2023/09/02 11:31:12;;;;;;;4.93;3.28;;;;;;;30.08;47.35;101254.31;5073495;28;20075;-77
2023/09/02 11:33:46;;;;;;;10.75;3.67;;;;;;;30.07;48.25;101258.34;5073782;28;20091;-77
2023/09/02 11:36:15;;;;;;;;;;;;;;;30.08;50.83;101257.97;5073866;28;20071;-76
2023/09/02 11:38:44;;;;;;;5.18;3.60;;;;;;;30.04;49.04;101252.31;5073865;28;19925;-77
2023/09/02 11:41:22;;;;;;;3.60;3.30;;;;;;;30.00;48.48;101251.50;5074126;28;20060;-76
2023/09/02 11:43:55;;;;;;;5.38;3.08;;;;;;;30.14;49.00;101247.94;5073340;28;20055;-77
2023/09/02 11:46:23;;;;;;;3.42;3.00;;;;;;;30.12;47.28;101246.72;5053752;28;20557;-76
2023/09/02 11:48:52;;;;;;;3.50;3.20;;;;;;;30.33;46.91;101257.22;5073153;28;20059;-77
2023/09/02 11:51:21;;;;;;;5.50;3.13;;;;;;;30.47;47.98;101256.44;5072970;28;20040;-77
2023/09/02 11:53:55;;;;;;;4.70;3.85;;;;;;;30.50;48.81;101249.19;5073044;28;20044;-76
2023/09/02 11:56:24;;;;;;;4.40;3.38;;;;;;;30.51;46.84;101248.78;5071059;28;20789;-76
2023/09/02 11:58:52;;;;;;;5.22;3.15;;;;;;;30.51;46.68;101245.16;5073321;28;20040;-77